sensor_id;sensor_type;location;lat;lon;timestamp;temperature;humidity
65707;SHT31;52423;43.512;5.220;2023-09-19T00:00:34;25.46;68.35
65707;SHT31;52423;43.512;5.220;2023-09-19T00:02:59;25.45;68.13
65707;SHT31;52423;43.512;5.220;2023-09-19T00:05:29;25.42;68.12
65707;SHT31;52423;43.512;5.220;2023-09-19T00:07:56;25.41;68.16
65707;SHT31;52423;43.512;5.220;2023-09-19T00:10:25;25.39;67.81
65707;SHT31;52423;43.512;5.220;2023-09-19T00:12:55;25.39;67.65
65707;SHT31;52423;43.512;5.220;2023-09-19T00:15:21;25.41;67.56
65707;SHT31;52423;43.512;5.220;2023-09-19T00:17:47;25.39;67.39
65707;SHT31;52423;43.512;5.220;2023-09-19T00:20:13;25.38;67.36
65707;SHT31;52423;43.512;5.220;2023-09-19T00:22:42;25.37;67.32
65707;SHT31;52423;43.512;5.220;2023-09-19T00:25:08;25.34;67.31
65707;SHT31;52423;43.512;5.220;2023-09-19T00:27:40;25.35;67.03
65707;SHT31;52423;43.512;5.220;2023-09-19T00:30:11;25.35;66.87
65707;SHT31;52423;43.512;5.220;2023-09-19T00:32:42;25.32;67.28
65707;SHT31;52423;43.512;5.220;2023-09-19T00:35:08;25.35;66.81
65707;SHT31;52423;43.512;5.220;2023-09-19T00:37:37;25.31;66.89
65707;SHT31;52423;43.512;5.220;2023-09-19T00:40:07;25.31;66.63
65707;SHT31;52423;43.512;5.220;2023-09-19T00:42:40;25.30;66.68
65707;SHT31;52423;43.512;5.220;2023-09-19T00:45:07;25.27;66.80
65707;SHT31;52423;43.512;5.220;2023-09-19T00:47:36;25.27;66.38
65707;SHT31;52423;43.512;5.220;2023-09-19T00:50:03;25.27;66.47
65707;SHT31;52423;43.512;5.220;2023-09-19T00:52:30;25.25;66.29
65707;SHT31;52423;43.512;5.220;2023-09-19T00:54:57;25.24;66.42
65707;SHT31;52423;43.512;5.220;2023-09-19T00:57:23;25.24;66.09
65707;SHT31;52423;43.512;5.220;2023-09-19T00:59:50;25.21;66.05
65707;SHT31;52423;43.512;5.220;2023-09-19T01:02:18;25.20;66.09
65707;SHT31;52423;43.512;5.220;2023-09-19T01:04:44;25.20;65.84
65707;SHT31;52423;43.512;5.220;2023-09-19T01:07:10;25.18;65.92
65707;SHT31;52423;43.512;5.220;2023-09-19T01:09:36;25.17;65.96
65707;SHT31;52423;43.512;5.220;2023-09-19T01:12:04;25.17;65.77
65707;SHT31;52423;43.512;5.220;2023-09-19T01:14:59;25.18;65.67
65707;SHT31;52423;43.512;5.220;2023-09-19T01:29:12;25.14;65.48
65707;SHT31;52423;43.512;5.220;2023-09-19T01:31:33;25.10;65.64
65707;SHT31;52423;43.512;5.220;2023-09-19T01:34:02;25.08;65.63
65707;SHT31;52423;43.512;5.220;2023-09-19T01:36:34;25.07;65.44
65707;SHT31;52423;43.512;5.220;2023-09-19T01:39:04;25.07;65.51
65707;SHT31;52423;43.512;5.220;2023-09-19T01:41:51;25.06;65.47
65707;SHT31;52423;43.512;5.220;2023-09-19T01:44:29;25.04;65.39
65707;SHT31;52423;43.512;5.220;2023-09-19T01:46:59;25.06;65.27
65707;SHT31;52423;43.512;5.220;2023-09-19T01:52:14;25.06;64.87
65707;SHT31;52423;43.512;5.220;2023-09-19T01:54:56;25.01;65.11
65707;SHT31;52423;43.512;5.220;2023-09-19T01:59:55;25.01;64.95
65707;SHT31;52423;43.512;5.220;2023-09-19T02:02:22;25.00;64.72
65707;SHT31;52423;43.512;5.220;2023-09-19T02:04:49;24.97;64.89
65707;SHT31;52423;43.512;5.220;2023-09-19T02:07:16;24.95;64.76
65707;SHT31;52423;43.512;5.220;2023-09-19T02:09:42;24.94;64.60
65707;SHT31;52423;43.512;5.220;2023-09-19T02:12:09;24.94;64.48
65707;SHT31;52423;43.512;5.220;2023-09-19T02:14:34;24.91;64.64
65707;SHT31;52423;43.512;5.220;2023-09-19T02:17:02;24.93;64.30
65707;SHT31;52423;43.512;5.220;2023-09-19T02:19:28;24.91;64.32
65707;SHT31;52423;43.512;5.220;2023-09-19T02:21:55;24.87;64.38
65707;SHT31;52423;43.512;5.220;2023-09-19T02:24:20;24.87;64.23
65707;SHT31;52423;43.512;5.220;2023-09-19T02:26:46;24.86;64.38
65707;SHT31;52423;43.512;5.220;2023-09-19T02:29:12;24.84;64.09
65707;SHT31;52423;43.512;5.220;2023-09-19T02:31:38;24.84;64.02
65707;SHT31;52423;43.512;5.220;2023-09-19T02:34:04;24.80;63.97
65707;SHT31;52423;43.512;5.220;2023-09-19T02:36:34;24.83;63.83
65707;SHT31;52423;43.512;5.220;2023-09-19T02:38:59;24.83;63.76
65707;SHT31;52423;43.512;5.220;2023-09-19T02:41:25;24.84;63.76
65707;SHT31;52423;43.512;5.220;2023-09-19T02:43:50;24.80;63.59
65707;SHT31;52423;43.512;5.220;2023-09-19T02:46:16;24.79;63.61
65707;SHT31;52423;43.512;5.220;2023-09-19T02:48:42;24.77;63.45
65707;SHT31;52423;43.512;5.220;2023-09-19T02:51:07;24.76;63.48
65707;SHT31;52423;43.512;5.220;2023-09-19T02:53:33;24.79;63.31
65707;SHT31;52423;43.512;5.220;2023-09-19T02:55:58;24.72;63.42
65707;SHT31;52423;43.512;5.220;2023-09-19T02:58:24;24.70;63.25
65707;SHT31;52423;43.512;5.220;2023-09-19T03:00:50;24.72;63.22
65707;SHT31;52423;43.512;5.220;2023-09-19T03:03:17;24.66;63.36
65707;SHT31;52423;43.512;5.220;2023-09-19T03:05:42;24.70;63.18
65707;SHT31;52423;43.512;5.220;2023-09-19T03:08:15;24.70;63.00
65707;SHT31;52423;43.512;5.220;2023-09-19T03:10:42;24.66;63.13
65707;SHT31;52423;43.512;5.220;2023-09-19T03:13:07;24.64;62.91
65707;SHT31;52423;43.512;5.220;2023-09-19T03:15:35;24.63;63.09
65707;SHT31;52423;43.512;5.220;2023-09-19T03:18:04;24.63;62.92
65707;SHT31;52423;43.512;5.220;2023-09-19T03:20:30;24.63;62.82
65707;SHT31;52423;43.512;5.220;2023-09-19T03:22:55;24.60;62.68
65707;SHT31;52423;43.512;5.220;2023-09-19T03:25:22;24.59;62.81
65707;SHT31;52423;43.512;5.220;2023-09-19T03:27:48;24.56;62.83
65707;SHT31;52423;43.512;5.220;2023-09-19T03:30:14;24.62;62.62
65707;SHT31;52423;43.512;5.220;2023-09-19T03:32:47;24.56;62.63
65707;SHT31;52423;43.512;5.220;2023-09-19T03:35:15;24.52;62.65
65707;SHT31;52423;43.512;5.220;2023-09-19T03:37:41;24.49;62.76
65707;SHT31;52423;43.512;5.220;2023-09-19T03:40:08;24.49;62.72
65707;SHT31;52423;43.512;5.220;2023-09-19T03:42:38;24.45;62.63
65707;SHT31;52423;43.512;5.220;2023-09-19T03:45:04;24.45;62.60
65707;SHT31;52423;43.512;5.220;2023-09-19T03:47:31;24.51;62.35
65707;SHT31;52423;43.512;5.220;2023-09-19T03:49:56;24.46;62.39
65707;SHT31;52423;43.512;5.220;2023-09-19T03:52:21;24.48;62.33
65707;SHT31;52423;43.512;5.220;2023-09-19T03:54:47;24.40;62.43
65707;SHT31;52423;43.512;5.220;2023-09-19T03:57:12;24.46;62.28
65707;SHT31;52423;43.512;5.220;2023-09-19T03:59:41;24.39;62.17
65707;SHT31;52423;43.512;5.220;2023-09-19T04:02:07;24.40;62.03
65707;SHT31;52423;43.512;5.220;2023-09-19T04:04:37;24.39;62.03
65707;SHT31;52423;43.512;5.220;2023-09-19T04:07:02;24.39;61.83
65707;SHT31;52423;43.512;5.220;2023-09-19T04:09:28;24.37;61.81
65707;SHT31;52423;43.512;5.220;2023-09-19T04:11:53;24.36;61.88
65707;SHT31;52423;43.512;5.220;2023-09-19T04:14:18;24.33;61.79
65707;SHT31;52423;43.512;5.220;2023-09-19T04:16:44;24.35;61.65
65707;SHT31;52423;43.512;5.220;2023-09-19T04:19:09;24.33;61.63
65707;SHT31;52423;43.512;5.220;2023-09-19T04:21:35;24.32;61.68
65707;SHT31;52423;43.512;5.220;2023-09-19T04:24:00;24.30;61.46
65707;SHT31;52423;43.512;5.220;2023-09-19T04:26:25;24.33;61.45
65707;SHT31;52423;43.512;5.220;2023-09-19T04:28:51;24.33;61.26
65707;SHT31;52423;43.512;5.220;2023-09-19T04:31:16;24.29;61.16
65707;SHT31;52423;43.512;5.220;2023-09-19T04:33:43;24.28;61.36
65707;SHT31;52423;43.512;5.220;2023-09-19T04:36:09;24.26;61.21
65707;SHT31;52423;43.512;5.220;2023-09-19T04:38:35;24.26;61.26
65707;SHT31;52423;43.512;5.220;2023-09-19T04:41:00;24.23;61.25
65707;SHT31;52423;43.512;5.220;2023-09-19T04:43:26;24.22;61.12
65707;SHT31;52423;43.512;5.220;2023-09-19T04:45:52;24.23;61.15
65707;SHT31;52423;43.512;5.220;2023-09-19T04:48:22;24.18;61.07
65707;SHT31;52423;43.512;5.220;2023-09-19T04:50:49;24.22;60.98
65707;SHT31;52423;43.512;5.220;2023-09-19T04:53:14;24.21;60.97
65707;SHT31;52423;43.512;5.220;2023-09-19T04:55:40;24.23;61.15
65707;SHT31;52423;43.512;5.220;2023-09-19T04:58:05;24.23;61.54
65707;SHT31;52423;43.512;5.220;2023-09-19T05:00:30;24.32;61.59
65707;SHT31;52423;43.512;5.220;2023-09-19T05:03:00;24.23;61.67
65707;SHT31;52423;43.512;5.220;2023-09-19T05:05:25;24.21;62.08
65707;SHT31;52423;43.512;5.220;2023-09-19T05:07:51;24.22;62.01
65707;SHT31;52423;43.512;5.220;2023-09-19T05:10:18;24.21;62.59
65707;SHT31;52423;43.512;5.220;2023-09-19T05:12:44;24.26;62.47
65707;SHT31;52423;43.512;5.220;2023-09-19T05:15:12;24.25;62.15
65707;SHT31;52423;43.512;5.220;2023-09-19T05:17:39;24.32;61.86
65707;SHT31;52423;43.512;5.220;2023-09-19T05:20:06;24.30;61.65
65707;SHT31;52423;43.512;5.220;2023-09-19T05:22:41;24.30;61.78
65707;SHT31;52423;43.512;5.220;2023-09-19T05:25:08;24.35;62.02
65707;SHT31;52423;43.512;5.220;2023-09-19T05:27:34;24.40;62.04
65707;SHT31;52423;43.512;5.220;2023-09-19T05:29:59;24.43;62.37
65707;SHT31;52423;43.512;5.220;2023-09-19T05:32:25;24.43;62.39
65707;SHT31;52423;43.512;5.220;2023-09-19T05:34:50;24.45;62.58
65707;SHT31;52423;43.512;5.220;2023-09-19T05:37:21;24.45;62.86
65707;SHT31;52423;43.512;5.220;2023-09-19T05:39:48;24.43;62.75
65707;SHT31;52423;43.512;5.220;2023-09-19T05:42:14;24.46;62.57
65707;SHT31;52423;43.512;5.220;2023-09-19T05:44:39;24.42;62.74
65707;SHT31;52423;43.512;5.220;2023-09-19T05:47:05;24.40;62.82
65707;SHT31;52423;43.512;5.220;2023-09-19T05:49:36;24.45;62.93
65707;SHT31;52423;43.512;5.220;2023-09-19T05:52:06;24.39;62.93
65707;SHT31;52423;43.512;5.220;2023-09-19T05:54:32;24.43;62.97
65707;SHT31;52423;43.512;5.220;2023-09-19T05:57:02;24.40;63.04
65707;SHT31;52423;43.512;5.220;2023-09-19T05:59:27;24.40;63.07
65707;SHT31;52423;43.512;5.220;2023-09-19T06:01:53;24.42;63.09
65707;SHT31;52423;43.512;5.220;2023-09-19T06:04:18;24.36;62.82
65707;SHT31;52423;43.512;5.220;2023-09-19T06:06:47;24.36;62.62
65707;SHT31;52423;43.512;5.220;2023-09-19T06:09:14;24.33;62.48
65707;SHT31;52423;43.512;5.220;2023-09-19T06:11:42;24.39;62.53
65707;SHT31;52423;43.512;5.220;2023-09-19T06:14:07;24.36;63.02
65707;SHT31;52423;43.512;5.220;2023-09-19T06:16:33;24.40;63.04
65707;SHT31;52423;43.512;5.220;2023-09-19T06:18:58;24.40;63.23
65707;SHT31;52423;43.512;5.220;2023-09-19T06:21:25;24.36;63.12
65707;SHT31;52423;43.512;5.220;2023-09-19T06:23:52;24.36;62.90
65707;SHT31;52423;43.512;5.220;2023-09-19T06:26:18;24.35;62.84
65707;SHT31;52423;43.512;5.220;2023-09-19T06:28:43;24.32;63.12
65707;SHT31;52423;43.512;5.220;2023-09-19T06:31:09;24.32;63.09
65707;SHT31;52423;43.512;5.220;2023-09-19T06:33:38;24.32;63.17
65707;SHT31;52423;43.512;5.220;2023-09-19T06:36:08;24.29;63.30
65707;SHT31;52423;43.512;5.220;2023-09-19T06:38:34;24.26;63.43
65707;SHT31;52423;43.512;5.220;2023-09-19T06:41:01;24.28;63.46
65707;SHT31;52423;43.512;5.220;2023-09-19T06:43:29;24.28;63.39
65707;SHT31;52423;43.512;5.220;2023-09-19T06:45:56;24.28;63.42
65707;SHT31;52423;43.512;5.220;2023-09-19T06:48:21;24.29;63.38
65707;SHT31;52423;43.512;5.220;2023-09-19T06:50:47;24.29;63.40
65707;SHT31;52423;43.512;5.220;2023-09-19T06:53:13;24.30;63.34
65707;SHT31;52423;43.512;5.220;2023-09-19T06:55:39;24.33;63.32
65707;SHT31;52423;43.512;5.220;2023-09-19T06:58:05;24.32;63.29
65707;SHT31;52423;43.512;5.220;2023-09-19T07:00:31;24.29;63.36
65707;SHT31;52423;43.512;5.220;2023-09-19T07:03:08;24.29;63.37
65707;SHT31;52423;43.512;5.220;2023-09-19T07:05:37;24.29;63.45
65707;SHT31;52423;43.512;5.220;2023-09-19T07:08:05;24.29;63.37
65707;SHT31;52423;43.512;5.220;2023-09-19T07:10:31;24.32;63.44
65707;SHT31;52423;43.512;5.220;2023-09-19T07:13:02;24.29;63.46
65707;SHT31;52423;43.512;5.220;2023-09-19T07:15:29;24.32;63.47
65707;SHT31;52423;43.512;5.220;2023-09-19T07:17:56;24.33;63.37
65707;SHT31;52423;43.512;5.220;2023-09-19T07:20:23;24.30;63.42
65707;SHT31;52423;43.512;5.220;2023-09-19T07:22:50;24.32;63.43
65707;SHT31;52423;43.512;5.220;2023-09-19T07:25:16;24.33;63.45
65707;SHT31;52423;43.512;5.220;2023-09-19T07:27:42;24.33;63.47
65707;SHT31;52423;43.512;5.220;2023-09-19T07:30:08;24.32;63.41
65707;SHT31;52423;43.512;5.220;2023-09-19T07:32:34;24.32;63.42
65707;SHT31;52423;43.512;5.220;2023-09-19T07:35:02;24.30;63.54
65707;SHT31;52423;43.512;5.220;2023-09-19T07:37:29;24.30;63.58
65707;SHT31;52423;43.512;5.220;2023-09-19T07:39:54;24.30;63.54
65707;SHT31;52423;43.512;5.220;2023-09-19T07:42:20;24.30;63.68
65707;SHT31;52423;43.512;5.220;2023-09-19T07:44:45;24.30;63.52
65707;SHT31;52423;43.512;5.220;2023-09-19T07:47:16;24.30;63.54
65707;SHT31;52423;43.512;5.220;2023-09-19T07:49:41;24.32;63.55
65707;SHT31;52423;43.512;5.220;2023-09-19T07:52:08;24.32;63.55
65707;SHT31;52423;43.512;5.220;2023-09-19T07:54:34;24.35;63.58
65707;SHT31;52423;43.512;5.220;2023-09-19T07:57:01;24.33;63.70
65707;SHT31;52423;43.512;5.220;2023-09-19T07:59:26;24.32;63.71
65707;SHT31;52423;43.512;5.220;2023-09-19T08:01:52;24.35;63.61
65707;SHT31;52423;43.512;5.220;2023-09-19T08:04:17;24.32;63.95
65707;SHT31;52423;43.512;5.220;2023-09-19T08:06:44;24.35;63.82
65707;SHT31;52423;43.512;5.220;2023-09-19T08:09:10;24.33;63.72
65707;SHT31;52423;43.512;5.220;2023-09-19T08:11:36;24.36;63.75
65707;SHT31;52423;43.512;5.220;2023-09-19T08:14:02;24.36;63.78
65707;SHT31;52423;43.512;5.220;2023-09-19T08:16:27;24.32;63.91
65707;SHT31;52423;43.512;5.220;2023-09-19T08:18:53;24.33;63.92
65707;SHT31;52423;43.512;5.220;2023-09-19T08:21:20;24.35;64.18
65707;SHT31;52423;43.512;5.220;2023-09-19T08:23:45;24.33;64.19
65707;SHT31;52423;43.512;5.220;2023-09-19T08:26:11;24.36;64.08
65707;SHT31;52423;43.512;5.220;2023-09-19T08:28:36;24.37;64.02
65707;SHT31;52423;43.512;5.220;2023-09-19T08:31:06;24.36;64.04
65707;SHT31;52423;43.512;5.220;2023-09-19T08:33:34;24.36;64.06
65707;SHT31;52423;43.512;5.220;2023-09-19T08:36:01;24.37;64.13
65707;SHT31;52423;43.512;5.220;2023-09-19T08:38:26;24.40;64.18
65707;SHT31;52423;43.512;5.220;2023-09-19T08:41:06;24.40;64.19
65707;SHT31;52423;43.512;5.220;2023-09-19T08:43:32;24.40;64.28
65707;SHT31;52423;43.512;5.220;2023-09-19T08:48:39;24.42;64.33
65707;SHT31;52423;43.512;5.220;2023-09-19T08:51:15;24.43;64.12
65707;SHT31;52423;43.512;5.220;2023-09-19T08:53:47;24.43;64.24
65707;SHT31;52423;43.512;5.220;2023-09-19T08:56:17;24.43;64.09
65707;SHT31;52423;43.512;5.220;2023-09-19T08:59:00;24.48;63.96
65707;SHT31;52423;43.512;5.220;2023-09-19T09:01:28;24.46;64.10
65707;SHT31;52423;43.512;5.220;2023-09-19T09:03:55;24.48;64.15
65707;SHT31;52423;43.512;5.220;2023-09-19T09:06:21;24.46;64.03
65707;SHT31;52423;43.512;5.220;2023-09-19T09:08:50;24.51;64.19
65707;SHT31;52423;43.512;5.220;2023-09-19T09:11:15;24.49;64.21
65707;SHT31;52423;43.512;5.220;2023-09-19T09:13:43;24.52;64.23
65707;SHT31;52423;43.512;5.220;2023-09-19T09:16:10;24.51;64.19
65707;SHT31;52423;43.512;5.220;2023-09-19T09:18:35;24.55;64.16
65707;SHT31;52423;43.512;5.220;2023-09-19T09:21:01;24.55;64.23
65707;SHT31;52423;43.512;5.220;2023-09-19T09:23:27;24.53;64.11
65707;SHT31;52423;43.512;5.220;2023-09-19T09:25:55;24.55;64.16
65707;SHT31;52423;43.512;5.220;2023-09-19T09:28:45;24.55;64.27
65707;SHT31;52423;43.512;5.220;2023-09-19T09:31:24;24.55;64.19
65707;SHT31;52423;43.512;5.220;2023-09-19T09:33:55;24.57;64.21
65707;SHT31;52423;43.512;5.220;2023-09-19T09:36:53;24.60;64.17
65707;SHT31;52423;43.512;5.220;2023-09-19T09:39:30;24.57;64.07
65707;SHT31;52423;43.512;5.220;2023-09-19T09:41:57;24.59;64.13
65707;SHT31;52423;43.512;5.220;2023-09-19T09:44:24;24.59;64.08
65707;SHT31;52423;43.512;5.220;2023-09-19T09:46:49;24.59;64.12
65707;SHT31;52423;43.512;5.220;2023-09-19T09:49:22;24.60;64.14
65707;SHT31;52423;43.512;5.220;2023-09-19T09:51:59;24.62;64.07
65707;SHT31;52423;43.512;5.220;2023-09-19T09:54:28;24.64;64.02
65707;SHT31;52423;43.512;5.220;2023-09-19T09:57:00;24.62;63.79
65707;SHT31;52423;43.512;5.220;2023-09-19T09:59:49;24.67;63.83
65707;SHT31;52423;43.512;5.220;2023-09-19T10:02:17;24.72;63.84
65707;SHT31;52423;43.512;5.220;2023-09-19T10:04:55;24.72;63.96
65707;SHT31;52423;43.512;5.220;2023-09-19T10:07:40;24.72;63.97
65707;SHT31;52423;43.512;5.220;2023-09-19T10:10:08;24.72;63.96
65707;SHT31;52423;43.512;5.220;2023-09-19T10:12:48;24.73;63.75
65707;SHT31;52423;43.512;5.220;2023-09-19T10:15:18;24.80;63.77
65707;SHT31;52423;43.512;5.220;2023-09-19T10:17:46;24.83;63.71
65707;SHT31;52423;43.512;5.220;2023-09-19T10:20:13;24.83;63.64
65707;SHT31;52423;43.512;5.220;2023-09-19T10:23:05;24.84;63.51
65707;SHT31;52423;43.512;5.220;2023-09-19T10:25:37;24.84;63.55
65707;SHT31;52423;43.512;5.220;2023-09-19T10:28:02;24.86;63.54
65707;SHT31;52423;43.512;5.220;2023-09-19T10:30:32;24.86;63.52
65707;SHT31;52423;43.512;5.220;2023-09-19T10:33:04;24.88;63.56
65707;SHT31;52423;43.512;5.220;2023-09-19T10:35:32;24.90;63.45
65707;SHT31;52423;43.512;5.220;2023-09-19T10:38:00;24.90;63.46
65707;SHT31;52423;43.512;5.220;2023-09-19T10:40:29;24.94;63.37
65707;SHT31;52423;43.512;5.220;2023-09-19T10:43:02;24.94;63.34
65707;SHT31;52423;43.512;5.220;2023-09-19T10:45:30;24.95;63.32
65707;SHT31;52423;43.512;5.220;2023-09-19T10:47:57;24.97;63.23
65707;SHT31;52423;43.512;5.220;2023-09-19T10:50:23;24.98;63.12
65707;SHT31;52423;43.512;5.220;2023-09-19T10:52:50;24.97;63.20
65707;SHT31;52423;43.512;5.220;2023-09-19T10:55:25;25.00;63.20
65707;SHT31;52423;43.512;5.220;2023-09-19T10:57:53;25.01;63.10
65707;SHT31;52423;43.512;5.220;2023-09-19T11:00:19;25.00;63.10
65707;SHT31;52423;43.512;5.220;2023-09-19T11:05:39;25.01;62.72
65707;SHT31;52423;43.512;5.220;2023-09-19T11:08:09;25.00;62.85
65707;SHT31;52423;43.512;5.220;2023-09-19T11:10:50;25.03;62.75
65707;SHT31;52423;43.512;5.220;2023-09-19T11:13:26;25.01;62.77
65707;SHT31;52423;43.512;5.220;2023-09-19T11:26:47;25.07;62.44
65707;SHT31;52423;43.512;5.220;2023-09-19T11:29:29;25.06;62.42
65707;SHT31;52423;43.512;5.220;2023-09-19T11:31:56;25.13;62.33
65707;SHT31;52423;43.512;5.220;2023-09-19T11:40:07;25.13;62.29
65707;SHT31;52423;43.512;5.220;2023-09-19T11:48:06;25.15;62.11
65707;SHT31;52423;43.512;5.220;2023-09-19T11:50:33;25.15;62.08
65707;SHT31;52423;43.512;5.220;2023-09-19T11:53:01;25.18;61.93
65707;SHT31;52423;43.512;5.220;2023-09-19T11:55:28;25.18;61.93
65707;SHT31;52423;43.512;5.220;2023-09-19T11:57:58;25.20;61.96
65707;SHT31;52423;43.512;5.220;2023-09-19T12:00:24;25.20;61.97
65707;SHT31;52423;43.512;5.220;2023-09-19T12:02:55;25.23;61.90
65707;SHT31;52423;43.512;5.220;2023-09-19T12:05:29;25.24;61.86
65707;SHT31;52423;43.512;5.220;2023-09-19T12:07:56;25.24;61.72
65707;SHT31;52423;43.512;5.220;2023-09-19T12:10:22;25.25;61.65
65707;SHT31;52423;43.512;5.220;2023-09-19T12:12:48;25.28;61.49
65707;SHT31;52423;43.512;5.220;2023-09-19T12:15:14;25.32;61.60
65707;SHT31;52423;43.512;5.220;2023-09-19T12:17:41;25.31;61.40
65707;SHT31;52423;43.512;5.220;2023-09-19T12:20:08;25.32;61.40
65707;SHT31;52423;43.512;5.220;2023-09-19T12:22:41;25.34;61.36
65707;SHT31;52423;43.512;5.220;2023-09-19T12:25:08;25.37;61.26
65707;SHT31;52423;43.512;5.220;2023-09-19T12:27:49;25.35;61.37
65707;SHT31;52423;43.512;5.220;2023-09-19T12:30:18;25.39;61.25
65707;SHT31;52423;43.512;5.220;2023-09-19T12:32:46;25.39;61.26
65707;SHT31;52423;43.512;5.220;2023-09-19T12:35:27;25.41;61.18
65707;SHT31;52423;43.512;5.220;2023-09-19T12:37:54;25.42;61.23
65707;SHT31;52423;43.512;5.220;2023-09-19T12:40:21;25.42;61.21
65707;SHT31;52423;43.512;5.220;2023-09-19T12:42:57;25.45;61.25
65707;SHT31;52423;43.512;5.220;2023-09-19T12:45:24;25.48;61.21
65707;SHT31;52423;43.512;5.220;2023-09-19T12:48:23;25.48;61.12
65707;SHT31;52423;43.512;5.220;2023-09-19T12:51:07;25.51;60.88
65707;SHT31;52423;43.512;5.220;2023-09-19T12:56:05;25.51;60.89
65707;SHT31;52423;43.512;5.220;2023-09-19T12:58:34;25.54;60.90
65707;SHT31;52423;43.512;5.220;2023-09-19T13:01:00;25.57;60.83
65707;SHT31;52423;43.512;5.220;2023-09-19T13:03:27;25.55;60.82
65707;SHT31;52423;43.512;5.220;2023-09-19T13:06:02;25.57;60.77
65707;SHT31;52423;43.512;5.220;2023-09-19T13:08:36;25.61;60.84
65707;SHT31;52423;43.512;5.220;2023-09-19T13:11:16;25.62;60.79
65707;SHT31;52423;43.512;5.220;2023-09-19T13:16:30;25.62;60.55
65707;SHT31;52423;43.512;5.220;2023-09-19T13:18:56;25.65;60.68
65707;SHT31;52423;43.512;5.220;2023-09-19T13:21:31;25.69;60.58
65707;SHT31;52423;43.512;5.220;2023-09-19T13:24:21;25.69;60.55
65707;SHT31;52423;43.512;5.220;2023-09-19T13:26:48;25.68;60.57
65707;SHT31;52423;43.512;5.220;2023-09-19T13:29:14;25.72;60.58
65707;SHT31;52423;43.512;5.220;2023-09-19T13:31:48;25.78;60.56
65707;SHT31;52423;43.512;5.220;2023-09-19T13:34:14;25.79;60.60
65707;SHT31;52423;43.512;5.220;2023-09-19T13:36:43;25.76;60.46
65707;SHT31;52423;43.512;5.220;2023-09-19T13:39:09;25.79;60.33
65707;SHT31;52423;43.512;5.220;2023-09-19T13:41:35;25.83;60.41
65707;SHT31;52423;43.512;5.220;2023-09-19T13:44:04;25.82;60.47
65707;SHT31;52423;43.512;5.220;2023-09-19T13:46:30;25.83;60.44
65707;SHT31;52423;43.512;5.220;2023-09-19T13:49:00;25.83;60.42
65707;SHT31;52423;43.512;5.220;2023-09-19T13:51:29;25.88;60.26
65707;SHT31;52423;43.512;5.220;2023-09-19T13:53:55;25.85;60.28
65707;SHT31;52423;43.512;5.220;2023-09-19T13:56:20;25.86;60.19
65707;SHT31;52423;43.512;5.220;2023-09-19T13:58:46;25.88;60.23
65707;SHT31;52423;43.512;5.220;2023-09-19T14:01:12;25.89;60.21
65707;SHT31;52423;43.512;5.220;2023-09-19T14:03:41;25.90;60.05
65707;SHT31;52423;43.512;5.220;2023-09-19T14:06:11;25.92;60.11
65707;SHT31;52423;43.512;5.220;2023-09-19T14:08:37;25.93;59.94
65707;SHT31;52423;43.512;5.220;2023-09-19T14:11:09;25.96;59.88
65707;SHT31;52423;43.512;5.220;2023-09-19T14:13:35;25.93;59.98
65707;SHT31;52423;43.512;5.220;2023-09-19T14:16:04;25.99;59.86
65707;SHT31;52423;43.512;5.220;2023-09-19T14:18:30;25.97;59.89
65707;SHT31;52423;43.512;5.220;2023-09-19T14:20:56;25.99;59.91
65707;SHT31;52423;43.512;5.220;2023-09-19T14:23:21;25.99;59.91
65707;SHT31;52423;43.512;5.220;2023-09-19T14:25:48;26.02;59.96
65707;SHT31;52423;43.512;5.220;2023-09-19T14:28:13;26.00;59.72
65707;SHT31;52423;43.512;5.220;2023-09-19T14:30:39;26.03;59.73
65707;SHT31;52423;43.512;5.220;2023-09-19T14:33:04;26.03;59.69
65707;SHT31;52423;43.512;5.220;2023-09-19T14:35:31;26.03;59.71
65707;SHT31;52423;43.512;5.220;2023-09-19T14:37:56;26.04;59.78
65707;SHT31;52423;43.512;5.220;2023-09-19T14:40:22;26.06;59.64
65707;SHT31;52423;43.512;5.220;2023-09-19T14:42:48;26.03;59.62
65707;SHT31;52423;43.512;5.220;2023-09-19T14:45:13;26.06;59.75
65707;SHT31;52423;43.512;5.220;2023-09-19T14:47:43;26.07;59.71
65707;SHT31;52423;43.512;5.220;2023-09-19T14:50:09;26.07;59.63
65707;SHT31;52423;43.512;5.220;2023-09-19T14:52:35;26.07;59.75
65707;SHT31;52423;43.512;5.220;2023-09-19T14:55:01;26.06;59.64
65707;SHT31;52423;43.512;5.220;2023-09-19T14:57:27;26.10;59.58
65707;SHT31;52423;43.512;5.220;2023-09-19T14:59:52;26.07;59.64
65707;SHT31;52423;43.512;5.220;2023-09-19T15:02:18;26.09;59.69
65707;SHT31;52423;43.512;5.220;2023-09-19T15:04:44;26.12;59.37
65707;SHT31;52423;43.512;5.220;2023-09-19T15:07:12;26.07;59.59
65707;SHT31;52423;43.512;5.220;2023-09-19T15:09:37;26.12;59.81
65707;SHT31;52423;43.512;5.220;2023-09-19T15:12:03;26.13;59.98
65707;SHT31;52423;43.512;5.220;2023-09-19T15:14:29;26.14;59.62
65707;SHT31;52423;43.512;5.220;2023-09-19T15:16:56;26.14;59.70
65707;SHT31;52423;43.512;5.220;2023-09-19T15:19:22;26.14;59.85
65707;SHT31;52423;43.512;5.220;2023-09-19T15:21:48;26.16;59.79
65707;SHT31;52423;43.512;5.220;2023-09-19T15:24:13;26.17;59.88
65707;SHT31;52423;43.512;5.220;2023-09-19T15:26:40;26.20;59.40
65707;SHT31;52423;43.512;5.220;2023-09-19T15:29:06;26.19;59.73
65707;SHT31;52423;43.512;5.220;2023-09-19T15:31:32;26.22;59.70
65707;SHT31;52423;43.512;5.220;2023-09-19T15:33:57;26.17;59.73
65707;SHT31;52423;43.512;5.220;2023-09-19T15:36:23;26.20;59.85
65707;SHT31;52423;43.512;5.220;2023-09-19T15:41:29;26.20;59.86
65707;SHT31;52423;43.512;5.220;2023-09-19T15:43:56;26.22;59.91
65707;SHT31;52423;43.512;5.220;2023-09-19T15:46:23;26.23;59.83
65707;SHT31;52423;43.512;5.220;2023-09-19T15:48:48;26.24;59.58
65707;SHT31;52423;43.512;5.220;2023-09-19T15:51:14;26.27;59.50
65707;SHT31;52423;43.512;5.220;2023-09-19T15:53:47;26.29;59.82
65707;SHT31;52423;43.512;5.220;2023-09-19T15:56:14;26.32;59.59
65707;SHT31;52423;43.512;5.220;2023-09-19T15:58:50;26.33;59.77
65707;SHT31;52423;43.512;5.220;2023-09-19T16:01:17;26.32;59.59
65707;SHT31;52423;43.512;5.220;2023-09-19T16:03:46;26.34;59.68
65707;SHT31;52423;43.512;5.220;2023-09-19T16:06:17;26.33;59.67
65707;SHT31;52423;43.512;5.220;2023-09-19T16:08:47;26.34;59.98
65707;SHT31;52423;43.512;5.220;2023-09-19T16:11:13;26.34;59.96
65707;SHT31;52423;43.512;5.220;2023-09-19T16:13:40;26.36;59.93
65707;SHT31;52423;43.512;5.220;2023-09-19T16:16:09;26.37;59.99
65707;SHT31;52423;43.512;5.220;2023-09-19T16:18:44;26.37;60.05
65707;SHT31;52423;43.512;5.220;2023-09-19T16:21:10;26.40;60.11
65707;SHT31;52423;43.512;5.220;2023-09-19T16:23:36;26.39;60.14
65707;SHT31;52423;43.512;5.220;2023-09-19T16:26:08;26.40;60.89
65707;SHT31;52423;43.512;5.220;2023-09-19T16:28:36;26.40;61.16